Las Vegas, Nevada
Traffic Map
Current Weather Conditions
Las Vegas, Nevada
Clear
Clear
46°
Feels Like: 43°
Wind Chill: 43° Ceiling: Unl
Heat Index: 46° Visibility: 10mi
Dew Point: 18° Wind: 6mph
Humidity: 33% Direction: 230° (SW)
Pressure: 30.26in Gusts: 0mph
Raw Report DataKLAS 271256Z 23005KT 10SM CLR 08/M08 A3026 RMK AO2 SLP242 T00781078
Traffic Incident Summary
Active as of:
Severity:
Category:
InformationThere was an issue retrieving the traffic information for this location. Please try a different location or try again shortly.
Advertisements
Track Severe Weather on mobile